Terminal Aerodrome Forecast
Issued by NWS Quad Cities IA IL

Home | Current Version | Previous Version | Text Only | Print | Product List | Glossary On
Versions: 1 2 3 4 5 6 7 8 9 10 11 12 13 14 15 16 17 18 19 20 21
000
FTUS43 KDVN 292338
TAFDBQ
TAF
KDBQ 292338Z 3000/3024 22007KT P6SM FEW040
     FM300400 21007KT P6SM BKN030
     FM301000 21006KT P6SM OVC015
     FM301600 24011KT 5SM BR VCSH BKN009 OVC015=

USA.gov is the U.S. government's official web portal to all federal, state and local government web resources and services.